Time;durP1;ratioP1;P1;durP2;ratioP2;P2;SDS_P1;SDS_P2;PMS_P1;PMS_P2;Temp;Humidity;BMP_temperature;BMP_pressure;BME280_temperature;BME280_humidity;BME280_pressure;Samples;Min_cycle;Max_cycle;Signal;HPM_P1;HPM_P2
2020/12/31 00:01:28;;;;;;;51.58;25.27;;;4.70;99.90;;;;;;5058070;28;20161;-80
2020/12/31 00:03:54;;;;;;;48.38;25.25;;;4.70;99.90;;;;;;5058772;28;20381;-80
2020/12/31 00:06:20;;;;;;;49.80;27.73;;;4.70;99.90;;;;;;5056696;28;20040;-81
2020/12/31 00:08:46;;;;;;;56.08;28.65;;;4.60;99.90;;;;;;5059613;28;20496;-80
2020/12/31 00:11:12;;;;;;;54.38;27.83;;;4.60;99.90;;;;;;5053300;28;20393;-79
2020/12/31 00:13:38;;;;;;;52.58;28.90;;;4.60;99.90;;;;;;5070323;28;20024;-80
2020/12/31 00:16:04;;;;;;;52.47;30.30;;;4.60;99.90;;;;;;5059494;28;20029;-80
2020/12/31 00:18:30;;;;;;;50.47;28.90;;;4.50;99.90;;;;;;5076151;28;20052;-79
2020/12/31 00:20:55;;;;;;;55.42;31.13;;;4.50;99.90;;;;;;5053334;28;20048;-80
2020/12/31 00:23:21;;;;;;;56.45;31.55;;;4.50;99.90;;;;;;5071230;28;20504;-80
2020/12/31 00:25:49;;;;;;;63.47;34.13;;;4.50;99.90;;;;;;5052393;28;20043;-81
2020/12/31 00:28:16;;;;;;;59.60;32.15;;;4.50;99.90;;;;;;5052637;28;20048;-80
2020/12/31 00:30:42;;;;;;;67.95;31.60;;;4.50;99.90;;;;;;5053081;28;20025;-81
2020/12/31 00:33:10;;;;;;;66.30;32.63;;;4.50;99.90;;;;;;5081950;28;20477;-81
2020/12/31 00:35:36;;;;;;;71.55;35.35;;;4.40;99.90;;;;;;5054124;28;20958;-80
2020/12/31 00:38:02;;;;;;;65.03;33.75;;;4.40;99.90;;;;;;5062317;28;20016;-80
2020/12/31 00:40:27;;;;;;;73.13;34.95;;;4.40;99.90;;;;;;5070710;28;20032;-81
2020/12/31 00:42:53;;;;;;;61.08;33.55;;;4.30;99.90;;;;;;5071443;28;20041;-81
2020/12/31 00:45:18;;;;;;;69.28;35.88;;;4.30;99.90;;;;;;5051784;28;20409;-81
2020/12/31 00:47:44;;;;;;;62.97;32.95;;;4.30;99.90;;;;;;5051779;28;20593;-81
2020/12/31 00:50:09;;;;;;;66.68;33.60;;;4.40;99.90;;;;;;5053008;28;20033;-80
2020/12/31 00:52:35;;;;;;;68.10;34.20;;;4.30;99.90;;;;;;5052284;28;20029;-80
2020/12/31 00:55:01;;;;;;;59.83;31.42;;;4.30;99.90;;;;;;5061475;28;20028;-80
2020/12/31 00:57:26;;;;;;;66.75;33.72;;;4.40;99.90;;;;;;5068776;28;20025;-80
2020/12/31 00:59:52;;;;;;;68.97;34.60;;;4.30;99.90;;;;;;5052411;28;20090;-80
2020/12/31 01:02:17;;;;;;;75.18;33.05;;;4.30;99.90;;;;;;5052282;28;20036;-80
2020/12/31 01:04:43;;;;;;;71.85;33.00;;;4.30;99.90;;;;;;5055428;28;20029;-80
2020/12/31 01:07:08;;;;;;;67.45;35.58;;;4.30;99.90;;;;;;5067470;28;20039;-81
2020/12/31 01:09:34;;;;;;;66.53;33.58;;;4.30;99.90;;;;;;5052139;28;20127;-81
2020/12/31 01:11:59;;;;;;;68.93;33.70;;;4.20;99.90;;;;;;5052326;28;20059;-80
2020/12/31 01:14:25;;;;;;;72.90;34.30;;;4.20;99.90;;;;;;5051693;28;20036;-80
2020/12/31 01:16:50;;;;;;;74.93;35.35;;;4.20;99.90;;;;;;5061520;28;20500;-80
2020/12/31 01:19:16;;;;;;;68.43;34.83;;;4.20;99.90;;;;;;5073120;28;20437;-80
2020/12/31 01:21:45;;;;;;;73.20;36.10;;;4.20;99.90;;;;;;5052397;28;20519;-81
2020/12/31 01:24:12;;;;;;;74.38;36.65;;;4.20;99.90;;;;;;5052170;28;20473;-80
2020/12/31 01:26:38;;;;;;;74.88;35.22;;;4.20;99.90;;;;;;5070913;28;20485;-81
2020/12/31 01:29:04;;;;;;;65.22;33.75;;;4.10;99.90;;;;;;5055573;28;20027;-81
2020/12/31 01:31:30;;;;;;;68.60;35.30;;;4.10;99.90;;;;;;5064838;28;20157;-82
2020/12/31 01:33:56;;;;;;;71.35;34.45;;;4.10;99.90;;;;;;5083656;28;20059;-81
2020/12/31 01:36:22;;;;;;;73.68;36.88;;;4.10;99.90;;;;;;5066051;28;20063;-81
2020/12/31 01:38:48;;;;;;;76.03;35.50;;;4.10;99.90;;;;;;5057242;28;20571;-81
2020/12/31 01:41:14;;;;;;;71.18;35.92;;;4.10;99.90;;;;;;5051855;28;20500;-81
2020/12/31 01:43:40;;;;;;;69.53;33.70;;;4.10;99.90;;;;;;5051097;28;20048;-82
2020/12/31 01:46:12;;;;;;;67.50;33.22;;;4.10;99.90;;;;;;5050907;28;20044;-81
2020/12/31 01:48:40;;;;;;;72.78;33.25;;;4.10;99.90;;;;;;5051285;28;20077;-81
2020/12/31 01:51:06;;;;;;;72.28;36.15;;;4.10;99.90;;;;;;5060503;28;20565;-81
2020/12/31 01:53:32;;;;;;;71.00;33.75;;;4.10;99.90;;;;;;5054987;28;20043;-81
2020/12/31 01:56:02;;;;;;;72.28;32.67;;;4.10;99.90;;;;;;5056474;28;20029;-81
2020/12/31 01:58:28;;;;;;;70.03;33.47;;;4.20;99.90;;;;;;5051004;28;20492;-81
2020/12/31 02:00:56;;;;;;;69.25;31.08;;;4.10;99.90;;;;;;5058405;28;20032;-80
2020/12/31 02:03:22;;;;;;;68.68;34.35;;;4.10;99.90;;;;;;5060335;28;20481;-81
2020/12/31 02:05:47;;;;;;;65.78;31.73;;;4.10;99.90;;;;;;5056457;28;20076;-81
2020/12/31 02:08:13;;;;;;;72.55;34.47;;;4.10;99.90;;;;;;5050881;28;20111;-81
2020/12/31 02:10:38;;;;;;;66.85;32.58;;;4.10;99.90;;;;;;5051386;28;20029;-81
2020/12/31 02:13:04;;;;;;;77.80;36.78;;;4.10;99.90;;;;;;5053955;28;20027;-81
2020/12/31 02:15:30;;;;;;;69.10;32.63;;;4.10;99.90;;;;;;5064621;28;20028;-81
2020/12/31 02:17:56;;;;;;;66.50;33.33;;;4.10;99.90;;;;;;5029375;28;20060;-80
2020/12/31 02:20:21;;;;;;;69.75;31.98;;;4.10;99.90;;;;;;5050716;28;20067;-80
2020/12/31 02:22:47;;;;;;;69.47;33.75;;;4.10;99.90;;;;;;5061131;28;20028;-80
2020/12/31 02:25:12;;;;;;;61.72;30.65;;;4.10;99.90;;;;;;5068880;28;20051;-80
2020/12/31 02:27:38;;;;;;;68.28;31.92;;;4.10;99.90;;;;;;5058026;28;20020;-79
2020/12/31 02:30:03;;;;;;;62.20;32.33;;;4.10;99.90;;;;;;5065398;28;20051;-79
2020/12/31 02:32:29;;;;;;;65.78;32.25;;;4.10;99.90;;;;;;5086045;28;20032;-80
2020/12/31 02:34:55;;;;;;;63.72;30.70;;;4.00;99.90;;;;;;5058551;28;20036;-80
2020/12/31 02:37:20;;;;;;;67.15;31.98;;;4.00;99.90;;;;;;5050849;28;20032;-79
2020/12/31 02:39:46;;;;;;;74.45;34.40;;;4.00;99.90;;;;;;5051566;28;20025;-80
2020/12/31 02:42:11;;;;;;;58.92;30.65;;;4.00;99.90;;;;;;5068525;28;20534;-80
2020/12/31 02:44:37;;;;;;;60.22;29.48;;;3.90;99.90;;;;;;5051248;28;20049;-80
2020/12/31 02:47:03;;;;;;;65.82;32.55;;;3.90;99.90;;;;;;5050835;28;20037;-80
2020/12/31 02:49:28;;;;;;;61.42;29.33;;;3.90;99.90;;;;;;5050822;28;20017;-80
2020/12/31 02:51:54;;;;;;;62.47;33.15;;;3.90;99.90;;;;;;5051098;28;20090;-80
2020/12/31 02:54:19;;;;;;;67.28;33.00;;;3.90;99.90;;;;;;5067393;28;20121;-80
2020/12/31 02:56:45;;;;;;;63.33;29.70;;;3.90;99.90;;;;;;5054133;28;20028;-80
2020/12/31 02:59:10;;;;;;;57.92;29.38;;;3.90;99.90;;;;;;5054834;28;20117;-80
2020/12/31 03:01:36;;;;;;;65.63;31.15;;;3.90;99.90;;;;;;5050806;28;20025;-80
2020/12/31 03:04:01;;;;;;;61.22;29.50;;;3.90;99.90;;;;;;5058026;28;20556;-80
2020/12/31 03:06:27;;;;;;;65.72;29.80;;;3.90;99.90;;;;;;5068008;28;20444;-80
2020/12/31 03:08:52;;;;;;;77.28;31.65;;;3.90;99.90;;;;;;5050867;28;20039;-80
2020/12/31 03:11:21;;;;;;;66.00;30.23;;;3.80;99.90;;;;;;5053240;28;20024;-80
2020/12/31 03:13:48;;;;;;;58.78;28.83;;;3.90;99.90;;;;;;5063041;28;20115;-80
2020/12/31 03:16:13;;;;;;;72.10;29.75;;;3.80;99.90;;;;;;5054541;28;20115;-80
2020/12/31 03:18:39;;;;;;;61.72;29.50;;;3.80;99.90;;;;;;5054466;28;20611;-80
2020/12/31 03:21:05;;;;;;;72.82;32.92;;;3.80;99.90;;;;;;5054281;28;20016;-80
2020/12/31 03:23:31;;;;;;;72.97;32.17;;;3.80;99.90;;;;;;5078049;28;20396;-80
2020/12/31 03:25:57;;;;;;;68.07;30.73;;;3.80;99.90;;;;;;5058473;28;20036;-80
2020/12/31 03:28:23;;;;;;;62.20;30.42;;;3.80;99.90;;;;;;5053981;28;20029;-80
2020/12/31 03:30:48;;;;;;;61.25;31.15;;;3.80;99.90;;;;;;5059819;28;20032;-79
2020/12/31 03:33:15;;;;;;;61.22;31.05;;;3.70;99.90;;;;;;5073491;28;20020;-81
2020/12/31 03:35:47;;;;;;;63.10;31.02;;;3.70;99.90;;;;;;5073484;28;20473;-81
2020/12/31 03:38:14;;;;;;;58.33;30.20;;;3.70;99.90;;;;;;5063462;28;20056;-80
2020/12/31 03:40:40;;;;;;;57.53;29.90;;;3.70;99.90;;;;;;5054266;28;20565;-81
2020/12/31 03:43:06;;;;;;;57.67;28.60;;;3.70;99.90;;;;;;5060252;28;20079;-80
2020/12/31 03:45:33;;;;;;;63.22;32.95;;;3.70;99.90;;;;;;5060512;28;20071;-81
2020/12/31 03:47:59;;;;;;;64.47;31.55;;;3.70;99.90;;;;;;5053903;28;20028;-80
2020/12/31 03:50:25;;;;;;;69.20;31.42;;;3.70;99.90;;;;;;5079100;28;20110;-81
2020/12/31 03:52:51;;;;;;;59.70;30.52;;;3.70;99.90;;;;;;5065174;28;20066;-81
2020/12/31 03:55:17;;;;;;;57.28;29.90;;;3.70;99.90;;;;;;5053478;28;20024;-81
2020/12/31 03:57:43;;;;;;;71.40;32.25;;;3.70;99.90;;;;;;5071583;28;20036;-80
2020/12/31 04:00:09;;;;;;;61.15;31.13;;;3.70;99.90;;;;;;5054744;28;20392;-80
2020/12/31 04:02:34;;;;;;;68.90;33.05;;;3.70;99.90;;;;;;5054840;28;20370;-81
2020/12/31 04:05:00;;;;;;;59.03;30.60;;;3.80;99.90;;;;;;5088741;28;20043;-81
2020/12/31 04:07:25;;;;;;;67.93;30.33;;;3.80;99.90;;;;;;5069311;28;20034;-80
2020/12/31 04:09:51;;;;;;;67.80;32.70;;;3.80;99.90;;;;;;5053651;28;20477;-81
2020/12/31 04:12:17;;;;;;;67.53;31.83;;;3.80;99.90;;;;;;5053611;28;20052;-81
2020/12/31 04:14:43;;;;;;;62.17;31.02;;;3.80;99.90;;;;;;5065528;28;20028;-81
2020/12/31 04:17:09;;;;;;;63.83;31.83;;;3.80;99.90;;;;;;5062317;28;20029;-80
2020/12/31 04:19:34;;;;;;;60.80;30.65;;;3.90;99.90;;;;;;5069686;28;20115;-79
2020/12/31 04:22:00;;;;;;;65.30;31.85;;;3.90;99.90;;;;;;5052766;28;20377;-79
2020/12/31 04:24:25;;;;;;;62.45;32.50;;;3.90;99.90;;;;;;5052750;28;20150;-80
2020/12/31 04:26:51;;;;;;;63.90;33.25;;;3.90;99.90;;;;;;5073215;28;20048;-80
2020/12/31 04:29:17;;;;;;;62.58;32.08;;;3.90;99.90;;;;;;5067862;28;20027;-80
2020/12/31 04:31:44;;;;;;;83.53;34.85;;;4.00;99.90;;;;;;5067024;28;20036;-80
2020/12/31 04:34:10;;;;;;;67.47;30.48;;;3.90;99.90;;;;;;5065099;28;20537;-80
2020/12/31 04:36:36;;;;;;;66.32;32.30;;;4.00;99.90;;;;;;5072190;28;20036;-80
2020/12/31 04:39:03;;;;;;;68.30;31.90;;;4.00;99.90;;;;;;5056374;28;20021;-80
2020/12/31 04:41:28;;;;;;;70.18;30.95;;;4.00;99.90;;;;;;5066251;28;20020;-80
2020/12/31 04:43:54;;;;;;;72.35;34.15;;;4.00;99.90;;;;;;5055801;28;20044;-80
2020/12/31 04:46:22;;;;;;;66.72;32.50;;;3.90;99.90;;;;;;5071777;28;20028;-81
2020/12/31 04:49:04;;;;;;;66.38;31.40;;;4.00;99.90;;;;;;5058168;28;20028;-80
2020/12/31 04:51:33;;;;;;;68.20;31.52;;;4.00;99.90;;;;;;5063952;28;20142;-80
2020/12/31 04:54:01;;;;;;;61.20;30.90;;;4.00;99.90;;;;;;5071104;28;20024;-80
2020/12/31 04:56:33;;;;;;;60.45;31.13;;;4.00;99.90;;;;;;5070804;28;20536;-80
2020/12/31 04:58:58;;;;;;;57.20;29.15;;;4.00;99.90;;;;;;5055764;28;20046;-80
2020/12/31 05:01:24;;;;;;;64.15;30.63;;;4.10;99.90;;;;;;5051851;28;20441;-80
2020/12/31 05:03:49;;;;;;;56.33;28.67;;;4.10;99.90;;;;;;5052160;28;20090;-80
2020/12/31 05:06:18;;;;;;;57.55;29.20;;;4.10;99.90;;;;;;5051960;28;20040;-80
2020/12/31 05:08:45;;;;;;;53.72;29.45;;;4.10;99.90;;;;;;5080500;28;20080;-80
2020/12/31 05:11:11;;;;;;;59.80;30.42;;;4.10;99.90;;;;;;5071899;28;20115;-80
2020/12/31 05:13:44;;;;;;;61.83;29.58;;;4.10;99.90;;;;;;5053579;28;20059;-80
2020/12/31 05:16:10;;;;;;;65.53;32.35;;;4.20;99.90;;;;;;5058276;28;20020;-80
2020/12/31 05:18:36;;;;;;;60.53;31.33;;;4.10;99.90;;;;;;5077563;28;20039;-80
2020/12/31 05:21:14;;;;;;;58.75;30.83;;;4.10;99.90;;;;;;5055893;28;20333;-80
2020/12/31 05:23:40;;;;;;;62.25;32.05;;;4.20;99.90;;;;;;5059061;28;20021;-80
2020/12/31 05:26:05;;;;;;;63.00;31.60;;;4.10;99.90;;;;;;5067281;28;20032;-81
2020/12/31 05:28:34;;;;;;;61.85;32.50;;;4.20;99.90;;;;;;5077729;28;20056;-81
2020/12/31 05:31:13;;;;;;;66.30;31.40;;;4.10;99.90;;;;;;5054930;28;20032;-80
2020/12/31 05:33:40;;;;;;;66.03;33.85;;;4.20;99.90;;;;;;5049813;28;20602;-81
2020/12/31 05:36:18;;;;;;;67.00;31.85;;;4.10;99.90;;;;;;5049637;28;20020;-81
2020/12/31 05:39:03;;;;;;;65.38;33.60;;;4.10;99.90;;;;;;5051918;28;20024;-81
2020/12/31 05:41:36;;;;;;;71.68;33.75;;;4.10;99.90;;;;;;5019738;28;20037;-81
2020/12/31 05:44:07;;;;;;;63.63;34.78;;;4.10;99.90;;;;;;4997853;28;20045;-80
2020/12/31 05:46:38;;;;;;;75.93;36.45;;;4.10;99.90;;;;;;5022861;28;20128;-80
2020/12/31 05:49:06;;;;;;;75.93;35.07;;;4.10;99.90;;;;;;5011682;28;20060;-80
2020/12/31 05:51:34;;;;;;;62.60;35.88;;;4.10;99.90;;;;;;5021060;28;20128;-80
2020/12/31 05:54:09;;;;;;;68.68;36.90;;;4.20;99.90;;;;;;5006421;28;20029;-80
2020/12/31 05:56:41;;;;;;;68.15;34.80;;;4.10;99.90;;;;;;5027372;28;20037;-80
2020/12/31 05:59:24;;;;;;;73.97;36.20;;;4.10;99.90;;;;;;5001244;28;20037;-80
2020/12/31 06:02:00;;;;;;;63.78;34.92;;;4.10;99.90;;;;;;5014463;28;20033;-80
2020/12/31 06:04:28;;;;;;;67.45;36.38;;;4.00;99.90;;;;;;4990589;28;20084;-81
2020/12/31 06:06:58;;;;;;;76.60;37.03;;;4.10;99.90;;;;;;5004584;28;20042;-80
2020/12/31 06:09:28;;;;;;;77.65;37.58;;;4.10;99.90;;;;;;5001866;28;20096;-80
2020/12/31 06:12:06;;;;;;;78.97;38.05;;;4.00;99.90;;;;;;5006619;28;20137;-80
2020/12/31 06:14:33;;;;;;;74.97;36.20;;;4.00;99.90;;;;;;5051938;28;20512;-80
2020/12/31 06:17:01;;;;;;;78.10;37.28;;;4.10;99.90;;;;;;5048927;28;20024;-80
2020/12/31 06:19:34;;;;;;;77.35;37.05;;;4.10;99.90;;;;;;5059600;28;20025;-81
2020/12/31 06:22:32;;;;;;;67.43;34.72;;;4.10;99.90;;;;;;5070927;28;20067;-81
2020/12/31 06:25:04;;;;;;;66.40;34.35;;;4.10;99.90;;;;;;5052198;28;20477;-81
2020/12/31 06:27:39;;;;;;;62.17;32.67;;;4.10;99.90;;;;;;5049782;28;20024;-80
2020/12/31 06:30:05;;;;;;;75.40;35.30;;;4.10;99.90;;;;;;5046668;28;20400;-80
2020/12/31 06:32:35;;;;;;;59.80;33.63;;;4.10;99.90;;;;;;5047268;28;20035;-80
2020/12/31 06:35:04;;;;;;;66.07;34.58;;;4.10;99.90;;;;;;5050529;28;20036;-80
2020/12/31 06:37:30;;;;;;;63.50;32.97;;;4.10;99.90;;;;;;5050858;28;20029;-80
2020/12/31 06:40:22;;;;;;;57.08;32.15;;;4.10;99.90;;;;;;5050346;28;20125;-80
2020/12/31 06:43:14;;;;;;;61.47;31.55;;;4.10;99.90;;;;;;5067370;28;20060;-80
2020/12/31 06:45:44;;;;;;;;;;;4.10;99.90;;;;;;5050050;28;20036;-80
2020/12/31 06:48:25;;;;;;;61.08;31.15;;;4.10;99.90;;;;;;5056587;28;19950;-81
2020/12/31 06:50:57;;;;;;;53.80;30.17;;;4.10;99.90;;;;;;5057786;28;20024;-80
2020/12/31 06:53:46;;;;;;;60.17;32.03;;;4.10;99.90;;;;;;5051790;28;20032;-81
2020/12/31 06:56:13;;;;;;;60.47;31.23;;;4.10;99.90;;;;;;5065882;28;20029;-80
2020/12/31 06:58:41;;;;;;;56.67;31.38;;;4.10;99.90;;;;;;5054157;28;20025;-81
2020/12/31 07:01:29;;;;;;;65.25;31.60;;;4.10;99.90;;;;;;5065314;28;20028;-81
2020/12/31 07:03:55;;;;;;;55.58;30.58;;;4.10;99.90;;;;;;5053767;28;20388;-80
2020/12/31 07:06:21;;;;;;;61.42;31.08;;;4.10;99.90;;;;;;5054994;28;20067;-80
2020/12/31 07:08:52;;;;;;;62.33;32.58;;;4.10;99.90;;;;;;5059115;28;20466;-80
2020/12/31 07:11:39;;;;;;;57.42;31.10;;;4.10;99.90;;;;;;5060636;28;20033;-80
2020/12/31 07:14:20;;;;;;;47.50;29.02;;;4.20;99.90;;;;;;5065969;28;20111;-80
2020/12/31 07:16:56;;;;;;;;;;;4.20;99.90;;;;;;5054145;28;20032;-80
2020/12/31 07:19:28;;;;;;;49.33;27.83;;;4.10;99.90;;;;;;5053914;28;19908;-81
2020/12/31 07:21:54;;;;;;;52.85;29.27;;;4.10;99.90;;;;;;5055841;28;20021;-80
2020/12/31 07:24:24;;;;;;;55.30;29.92;;;4.10;99.90;;;;;;5053959;28;20034;-80
2020/12/31 07:26:54;;;;;;;54.85;30.52;;;4.10;99.90;;;;;;5082393;28;20040;-80
2020/12/31 07:29:33;;;;;;;57.08;31.90;;;4.10;99.90;;;;;;5057466;28;20020;-80
2020/12/31 07:32:03;;;;;;;49.55;29.30;;;4.10;99.90;;;;;;5060638;28;20037;-80
2020/12/31 07:34:30;;;;;;;54.95;30.42;;;4.00;99.90;;;;;;5056185;28;20028;-80
2020/12/31 07:37:06;;;;;;;52.90;29.23;;;4.10;99.90;;;;;;5088124;28;20084;-81
2020/12/31 07:39:33;;;;;;;59.05;30.58;;;4.00;99.90;;;;;;5070508;28;20024;-81
2020/12/31 07:42:17;;;;;;;58.83;30.88;;;4.00;99.90;;;;;;5072974;28;20096;-80
2020/12/31 07:44:49;;;;;;;54.13;29.10;;;4.00;99.90;;;;;;5087680;28;20044;-80
2020/12/31 07:47:15;;;;;;;52.45;29.88;;;4.00;99.90;;;;;;5103129;28;20040;-81
2020/12/31 07:49:48;;;;;;;48.38;27.90;;;4.00;99.90;;;;;;5114211;28;20028;-80
2020/12/31 07:52:14;;;;;;;53.75;30.17;;;3.90;99.90;;;;;;5094630;28;20016;-81
2020/12/31 07:54:39;;;;;;;51.20;27.88;;;4.00;99.90;;;;;;5111945;28;20037;-81
2020/12/31 07:57:08;;;;;;;59.38;30.48;;;4.00;99.90;;;;;;5103388;28;20065;-82
2020/12/31 07:59:43;;;;;;;53.28;28.48;;;4.00;99.90;;;;;;5099332;28;20017;-81
2020/12/31 08:02:10;;;;;;;47.92;28.85;;;4.00;99.90;;;;;;5079231;28;20008;-81
2020/12/31 08:04:37;;;;;;;49.35;28.73;;;4.00;99.90;;;;;;5079733;28;20033;-83
2020/12/31 08:07:12;;;;;;;57.92;30.05;;;3.90;99.90;;;;;;5075593;28;20313;-83
2020/12/31 08:09:38;;;;;;;45.95;27.98;;;4.00;99.90;;;;;;5052223;28;20378;-81
2020/12/31 08:12:03;;;;;;;51.95;29.15;;;4.00;99.90;;;;;;5058058;28;20138;-80
2020/12/31 08:14:38;;;;;;;46.03;26.10;;;4.10;99.90;;;;;;5057391;28;20465;-81
2020/12/31 08:17:10;;;;;;;45.22;25.85;;;4.10;99.90;;;;;;5052839;28;20520;-82
2020/12/31 08:19:41;;;;;;;46.92;26.08;;;4.00;99.90;;;;;;5052092;28;20116;-81
2020/12/31 08:22:35;;;;;;;45.85;25.20;;;4.10;99.90;;;;;;5050201;28;20674;-80
2020/12/31 08:25:09;;;;;;;41.20;23.38;;;4.00;99.90;;;;;;5067548;28;20042;-81
2020/12/31 08:27:40;;;;;;;42.53;24.00;;;4.00;99.90;;;;;;5057917;28;20028;-80
2020/12/31 08:30:10;;;;;;;40.60;24.25;;;4.00;99.90;;;;;;5055004;28;20020;-80
2020/12/31 08:32:52;;;;;;;35.83;22.13;;;4.10;99.90;;;;;;5055028;28;20476;-80
2020/12/31 08:35:26;;;;;;;40.25;23.30;;;4.10;99.90;;;;;;5054030;28;20033;-80
2020/12/31 08:38:04;;;;;;;34.42;21.95;;;4.10;99.90;;;;;;5050983;28;20039;-80
2020/12/31 08:40:31;;;;;;;39.03;23.40;;;4.10;99.90;;;;;;5069953;28;20438;-81
2020/12/31 08:42:57;;;;;;;36.60;22.30;;;4.10;99.90;;;;;;5051948;28;20044;-80
2020/12/31 08:45:27;;;;;;;48.65;21.00;;;4.10;99.90;;;;;;5051850;28;20024;-81
2020/12/31 08:48:13;;;;;;;43.08;23.80;;;4.20;99.90;;;;;;5049710;28;20114;-81
2020/12/31 08:50:39;;;;;;;34.40;19.48;;;4.10;99.90;;;;;;5054004;28;20044;-81
2020/12/31 08:53:05;;;;;;;37.83;20.90;;;4.10;99.90;;;;;;5070660;28;20024;-81
2020/12/31 08:55:36;;;;;;;37.80;21.00;;;4.10;99.90;;;;;;5052438;28;20085;-81
2020/12/31 08:58:15;;;;;;;38.43;20.37;;;4.10;99.90;;;;;;5052366;28;20024;-81
2020/12/31 09:00:41;;;;;;;34.70;18.92;;;4.10;99.90;;;;;;5050308;28;20480;-81
2020/12/31 09:03:07;;;;;;;32.65;20.23;;;4.20;99.90;;;;;;5059308;28;20024;-81
2020/12/31 09:05:33;;;;;;;33.03;18.35;;;4.20;99.90;;;;;;5051647;28;20456;-81
2020/12/31 09:08:08;;;;;;;32.03;18.48;;;4.20;99.90;;;;;;5051374;28;20016;-81
2020/12/31 09:10:37;;;;;;;32.28;19.27;;;4.20;99.90;;;;;;5054647;28;20141;-81
2020/12/31 09:13:04;;;;;;;30.10;18.27;;;4.20;99.90;;;;;;5075340;28;20028;-81
2020/12/31 09:15:30;;;;;;;32.53;18.52;;;4.20;99.90;;;;;;5052307;28;20701;-82
2020/12/31 09:17:56;;;;;;;33.85;19.73;;;4.30;99.90;;;;;;5051682;28;20021;-81
2020/12/31 09:20:28;;;;;;;34.45;19.63;;;4.30;99.90;;;;;;5070422;28;20043;-80
2020/12/31 09:23:07;;;;;;;32.17;17.65;;;4.20;99.90;;;;;;5051447;28;20029;-80
2020/12/31 09:25:33;;;;;;;29.88;18.63;;;4.20;99.90;;;;;;5053419;28;20130;-81
2020/12/31 09:27:58;;;;;;;30.80;16.92;;;4.20;99.90;;;;;;5050884;28;20116;-81
2020/12/31 09:30:29;;;;;;;26.55;16.73;;;4.20;99.90;;;;;;5053072;28;20078;-80
2020/12/31 09:32:55;;;;;;;28.30;16.77;;;4.20;99.90;;;;;;5068891;28;20078;-80
2020/12/31 09:35:21;;;;;;;31.08;17.70;;;4.20;99.90;;;;;;5051574;28;20025;-80
2020/12/31 09:37:52;;;;;;;30.50;18.23;;;4.20;99.90;;;;;;5050945;28;20032;-80
2020/12/31 09:40:18;;;;;;;32.60;18.65;;;4.30;99.90;;;;;;5051640;28;20025;-80
2020/12/31 09:42:44;;;;;;;33.20;19.20;;;4.40;99.90;;;;;;5054032;28;20125;-81
2020/12/31 09:45:10;;;;;;;39.00;19.67;;;4.30;99.90;;;;;;5058054;28;20113;-80
2020/12/31 09:47:37;;;;;;;35.55;19.83;;;4.30;99.90;;;;;;5054545;28;20068;-81
2020/12/31 09:50:03;;;;;;;33.58;19.30;;;4.30;99.90;;;;;;5058641;28;20052;-80
2020/12/31 09:52:31;;;;;;;32.80;18.50;;;4.40;99.90;;;;;;5053023;28;20020;-80
2020/12/31 09:54:56;;;;;;;36.45;18.27;;;4.30;99.90;;;;;;5070397;28;20025;-81
2020/12/31 09:57:23;;;;;;;30.02;18.80;;;4.30;99.90;;;;;;5069889;28;20045;-81
2020/12/31 09:59:49;;;;;;;31.52;18.73;;;4.30;99.90;;;;;;5054359;28;20025;-80
2020/12/31 10:02:14;;;;;;;33.80;19.10;;;4.30;99.90;;;;;;5031010;28;20037;-80
2020/12/31 10:04:40;;;;;;;31.42;18.80;;;4.30;99.90;;;;;;5010577;28;20091;-80
2020/12/31 10:07:07;;;;;;;31.50;17.83;;;4.30;99.90;;;;;;5031463;28;20073;-79
2020/12/31 10:09:33;;;;;;;31.40;18.45;;;4.30;99.90;;;;;;5012567;28;20229;-80
2020/12/31 10:11:58;;;;;;;33.38;19.38;;;4.40;99.90;;;;;;5032551;28;20120;-80
2020/12/31 10:14:24;;;;;;;35.55;19.80;;;4.40;99.90;;;;;;5034948;28;20029;-80
2020/12/31 10:16:51;;;;;;;31.50;18.85;;;4.40;99.90;;;;;;5037475;28;20055;-80
2020/12/31 10:19:17;;;;;;;29.63;17.38;;;4.60;99.90;;;;;;5028397;28;20391;-80
2020/12/31 10:21:48;;;;;;;28.85;17.35;;;4.60;99.90;;;;;;5012774;28;20038;-80
2020/12/31 10:24:14;;;;;;;26.98;16.02;;;4.70;99.90;;;;;;5022082;28;20018;-79
2020/12/31 10:26:44;;;;;;;32.58;17.52;;;4.80;99.90;;;;;;5009032;28;20167;-80
2020/12/31 10:29:20;;;;;;;27.85;16.02;;;4.90;99.90;;;;;;5016036;28;20037;-80
2020/12/31 10:31:53;;;;;;;32.47;17.73;;;4.90;99.90;;;;;;5025355;28;20123;-80
2020/12/31 10:34:19;;;;;;;24.90;16.00;;;4.90;99.90;;;;;;5066362;28;20037;-80
2020/12/31 10:36:53;;;;;;;24.73;15.43;;;4.70;99.90;;;;;;5049609;28;20143;-80
2020/12/31 10:39:19;;;;;;;27.83;15.77;;;4.80;99.90;;;;;;5068357;28;20027;-80
2020/12/31 10:41:46;;;;;;;25.85;16.20;;;4.80;99.90;;;;;;5033389;28;20055;-79
2020/12/31 10:44:12;;;;;;;26.38;16.48;;;4.80;99.90;;;;;;5047614;28;20045;-80
2020/12/31 10:46:38;;;;;;;30.75;16.75;;;4.80;99.90;;;;;;5054531;28;20051;-80
2020/12/31 10:49:04;;;;;;;29.15;16.42;;;4.80;99.90;;;;;;5051998;28;20044;-81
2020/12/31 10:51:34;;;;;;;25.92;15.80;;;4.70;99.90;;;;;;5050987;28;20028;-81
2020/12/31 10:53:59;;;;;;;31.42;16.73;;;4.60;99.90;;;;;;5031668;28;20482;-81
2020/12/31 10:56:25;;;;;;;26.30;16.15;;;4.60;99.90;;;;;;5021958;28;20120;-80
2020/12/31 10:58:51;;;;;;;25.67;16.23;;;4.60;99.90;;;;;;5033568;28;20045;-80
2020/12/31 11:01:16;;;;;;;27.88;16.33;;;4.70;99.90;;;;;;5028898;28;20030;-80
2020/12/31 11:03:43;;;;;;;28.65;16.13;;;4.70;99.90;;;;;;5028116;28;20104;-80
2020/12/31 11:06:10;;;;;;;23.67;14.65;;;4.70;99.90;;;;;;5023492;28;20037;-81
2020/12/31 11:08:36;;;;;;;24.73;14.32;;;4.70;99.90;;;;;;5014938;28;20026;-81
2020/12/31 11:11:01;;;;;;;25.48;13.30;;;4.60;99.90;;;;;;5005461;28;20093;-81
2020/12/31 11:13:27;;;;;;;23.98;14.07;;;4.70;99.90;;;;;;5027698;28;20344;-81
2020/12/31 11:15:54;;;;;;;20.80;13.00;;;4.70;99.90;;;;;;5025130;28;20068;-80
2020/12/31 11:18:19;;;;;;;22.23;13.68;;;4.80;99.90;;;;;;5011617;28;20033;-80
2020/12/31 11:20:45;;;;;;;26.77;15.18;;;4.80;99.90;;;;;;5014394;28;20094;-80
2020/12/31 11:23:10;;;;;;;21.25;12.95;;;4.60;99.90;;;;;;5008218;28;20068;-81
2020/12/31 11:25:36;;;;;;;20.38;12.82;;;4.70;99.90;;;;;;5036021;28;20373;-80
2020/12/31 11:28:01;;;;;;;17.92;11.55;;;4.80;99.90;;;;;;5054373;28;20385;-81
2020/12/31 11:30:27;;;;;;;28.90;16.42;;;4.80;99.90;;;;;;5053070;28;20355;-81
2020/12/31 11:32:52;;;;;;;31.92;16.05;;;4.90;99.90;;;;;;5071886;28;20503;-81
2020/12/31 11:35:18;;;;;;;24.65;15.13;;;4.80;99.90;;;;;;5053323;28;20307;-79
2020/12/31 11:37:44;;;;;;;32.95;16.10;;;4.90;99.90;;;;;;5052439;28;20107;-80
2020/12/31 11:40:09;;;;;;;21.48;13.20;;;4.80;99.90;;;;;;5054022;28;20020;-79
2020/12/31 11:42:35;;;;;;;23.48;12.65;;;4.90;99.90;;;;;;5056983;28;20037;-80
2020/12/31 11:45:05;;;;;;;18.88;12.75;;;4.80;99.90;;;;;;5060116;28;20059;-80
2020/12/31 11:47:31;;;;;;;23.73;13.70;;;4.90;99.90;;;;;;5059512;28;20051;-80
2020/12/31 11:49:57;;;;;;;20.00;13.63;;;4.90;99.90;;;;;;5052539;28;20039;-79
2020/12/31 11:52:23;;;;;;;21.25;13.07;;;4.90;99.90;;;;;;5058242;28;20025;-81
2020/12/31 11:54:48;;;;;;;24.48;13.15;;;4.90;99.90;;;;;;5066415;28;20486;-81
2020/12/31 11:57:14;;;;;;;21.60;13.10;;;4.90;99.90;;;;;;5065418;28;20131;-80
2020/12/31 11:59:40;;;;;;;21.23;13.07;;;4.90;99.90;;;;;;5050924;28;20036;-82
2020/12/31 12:02:08;;;;;;;21.65;12.85;;;5.00;99.90;;;;;;5057712;28;20066;-81
2020/12/31 12:04:33;;;;;;;20.85;12.75;;;5.00;99.90;;;;;;5055358;28;20032;-81
2020/12/31 12:06:59;;;;;;;27.30;13.82;;;5.00;99.90;;;;;;5077689;28;20036;-81
2020/12/31 12:09:24;;;;;;;21.67;13.65;;;5.00;99.90;;;;;;5071138;28;20067;-81
2020/12/31 12:11:50;;;;;;;23.23;14.18;;;5.00;99.90;;;;;;5060131;28;20473;-81
2020/12/31 12:14:16;;;;;;;23.88;14.15;;;4.90;99.90;;;;;;5054252;28;20086;-82
2020/12/31 12:16:42;;;;;;;22.13;14.98;;;4.80;99.90;;;;;;5072838;28;20120;-81
2020/12/31 12:19:10;;;;;;;25.23;15.30;;;5.00;99.90;;;;;;5072357;28;20472;-81
2020/12/31 12:21:36;;;;;;;25.08;15.50;;;5.00;99.90;;;;;;5085503;28;20032;-81
2020/12/31 12:24:03;;;;;;;25.08;15.32;;;5.00;99.90;;;;;;5070987;28;20033;-81
2020/12/31 12:26:36;;;;;;;24.92;15.85;;;5.00;99.90;;;;;;5079435;28;20028;-81
2020/12/31 12:29:04;;;;;;;24.73;15.00;;;5.00;99.90;;;;;;5061474;28;20024;-81
2020/12/31 12:31:35;;;;;;;36.47;19.38;;;5.00;99.90;;;;;;5074470;28;20133;-81
2020/12/31 12:34:01;;;;;;;40.40;22.17;;;4.90;99.90;;;;;;5052799;28;20384;-81
2020/12/31 12:36:27;;;;;;;35.97;19.40;;;4.90;99.90;;;;;;5083263;28;20028;-81
2020/12/31 12:38:53;;;;;;;31.48;18.15;;;4.90;99.90;;;;;;5079418;28;20515;-80
2020/12/31 12:41:19;;;;;;;35.88;19.88;;;5.00;99.90;;;;;;5071879;28;20054;-81
2020/12/31 12:43:44;;;;;;;30.63;18.42;;;5.00;99.90;;;;;;5070127;28;20040;-81